createdAt,value
2023-03-27T00:05:08.556Z,3.80
2023-03-27T00:11:10.567Z,3.70
2023-03-27T00:17:13.332Z,3.70
2023-03-27T00:23:15.618Z,3.70
2023-03-27T00:29:18.181Z,3.60
2023-03-27T00:35:20.174Z,3.50
2023-03-27T00:41:22.799Z,3.50
2023-03-27T00:47:35.593Z,3.40
2023-03-27T00:53:37.813Z,3.40
2023-03-27T00:59:42.706Z,3.40
2023-03-27T01:05:44.766Z,3.40
2023-03-27T01:12:11.007Z,3.40
2023-03-27T01:18:38.215Z,3.40
2023-03-27T01:24:57.762Z,3.30
2023-03-27T01:31:07.011Z,3.30
2023-03-27T01:37:33.653Z,3.20
2023-03-27T01:44:03.663Z,3.20
2023-03-27T01:50:43.768Z,3.20
2023-03-27T01:56:54.789Z,3.20
2023-03-27T02:03:09.635Z,3.20
2023-03-27T02:09:38.813Z,3.10
2023-03-27T02:15:43.478Z,3.00
2023-03-27T02:21:48.077Z,2.80
2023-03-27T02:28:05.004Z,2.60
2023-03-27T02:34:49.238Z,2.50
2023-03-27T02:41:01.438Z,2.30
2023-03-27T02:47:38.819Z,2.10
2023-03-27T02:54:01.090Z,2.00
2023-03-27T03:00:05.461Z,1.80
2023-03-27T03:06:07.812Z,1.70
2023-03-27T03:12:10.545Z,1.70
2023-03-27T03:18:13.057Z,1.60
2023-03-27T03:24:15.245Z,1.60
2023-03-27T03:30:18.323Z,1.50
2023-03-27T03:36:20.210Z,1.40
2023-03-27T03:42:23.592Z,1.30
2023-03-27T03:48:27.358Z,1.30
2023-03-27T03:54:29.286Z,1.30
2023-03-27T04:00:34.538Z,1.30
2023-03-27T04:06:39.024Z,1.20
2023-03-27T04:12:41.335Z,1.10
2023-03-27T04:18:43.536Z,1.00
2023-03-27T04:24:45.644Z,1.00
2023-03-27T04:30:50.505Z,1.00
2023-03-27T04:36:52.673Z,1.00
2023-03-27T04:42:55.932Z,0.90
2023-03-27T04:48:57.889Z,0.90
2023-03-27T04:55:01.571Z,1.10
2023-03-27T05:01:03.588Z,1.10
2023-03-27T05:07:05.804Z,1.20
2023-03-27T05:13:08.221Z,1.30
2023-03-27T05:19:11.256Z,1.30
2023-03-27T05:25:13.747Z,1.30
2023-03-27T05:31:15.680Z,1.20
2023-03-27T05:37:18.089Z,1.30
2023-03-27T05:43:20.029Z,1.40
2023-03-27T05:49:22.101Z,1.40
2023-03-27T05:55:27.039Z,1.40
2023-03-27T06:01:30.294Z,1.50
2023-03-27T06:07:32.170Z,1.50
2023-03-27T06:13:34.045Z,1.60
2023-03-27T06:19:36.042Z,1.70
2023-03-27T06:25:39.369Z,1.80
2023-03-27T06:31:41.473Z,1.80
2023-03-27T06:37:50.693Z,2.00
2023-03-27T06:43:52.882Z,2.10
2023-03-27T06:49:54.728Z,2.30
2023-03-27T06:55:57.598Z,4.10
2023-03-27T07:01:59.749Z,6.90
2023-03-27T07:08:11.377Z,7.90
2023-03-27T07:14:24.233Z,9.20
2023-03-27T07:20:29.196Z,6.20
2023-03-27T07:26:32.566Z,5.10
2023-03-27T07:32:38.310Z,4.70
2023-03-27T07:38:44.158Z,4.70
2023-03-27T07:44:46.163Z,4.50
2023-03-27T07:50:48.121Z,4.60
2023-03-27T07:56:50.285Z,4.70
2023-03-27T08:02:52.597Z,4.70
2023-03-27T08:08:54.603Z,5.10
2023-03-27T08:14:56.548Z,5.50
2023-03-27T08:21:00.529Z,5.80
2023-03-27T08:27:03.467Z,5.60
2023-03-27T08:33:05.556Z,6.20
2023-03-27T08:39:08.226Z,6.40
2023-03-27T08:45:24.221Z,5.60
2023-03-27T08:52:03.847Z,6.00
2023-03-27T08:58:05.826Z,5.70
2023-03-27T09:04:44.235Z,5.40
2023-03-27T09:11:15.834Z,5.20
2023-03-27T09:17:25.928Z,5.30
2023-03-27T09:23:59.121Z,5.20
2023-03-27T09:30:13.520Z,6.80
2023-03-27T09:36:15.698Z,6.10
2023-03-27T09:42:30.641Z,5.60
2023-03-27T09:48:47.581Z,8.80
2023-03-27T09:54:55.900Z,7.70
2023-03-27T10:01:34.327Z,7.70
2023-03-27T10:07:36.467Z,9.20
2023-03-27T10:13:46.711Z,8.40
2023-03-27T10:19:50.940Z,7.10
2023-03-27T10:25:58.642Z,8.80
2023-03-27T10:32:04.166Z,10.10
2023-03-27T10:38:18.228Z,9.80
2023-03-27T10:44:25.682Z,8.60
2023-03-27T10:50:35.703Z,11.00
2023-03-27T10:56:53.088Z,9.30
2023-03-27T11:03:36.300Z,10.20
2023-03-27T11:09:53.639Z,11.40
2023-03-27T11:16:43.294Z,9.20
2023-03-27T11:22:57.568Z,7.50
2023-03-27T11:29:09.598Z,6.80
2023-03-27T11:35:23.075Z,8.20
2023-03-27T11:41:26.961Z,6.50
2023-03-27T11:47:59.918Z,8.10
2023-03-27T11:54:34.913Z,10.50
2023-03-27T12:00:58.994Z,12.00
2023-03-27T12:07:13.298Z,9.50
2023-03-27T12:13:58.308Z,8.00
2023-03-27T12:20:24.740Z,9.10
2023-03-27T12:27:27.486Z,10.30
2023-03-27T12:33:47.376Z,6.50
2023-03-27T12:39:57.644Z,5.10
2023-03-27T12:46:24.511Z,4.90
2023-03-27T12:52:27.487Z,5.70
2023-03-27T12:58:35.067Z,7.60
2023-03-27T13:04:51.331Z,6.90
2023-03-27T13:11:14.753Z,6.00
2023-03-27T13:18:02.447Z,4.50
2023-03-27T13:24:30.089Z,4.20
2023-03-27T13:30:55.657Z,4.00
2023-03-27T13:37:36.623Z,5.70
2023-03-27T13:43:39.026Z,8.10
2023-03-27T13:50:14.914Z,10.10
2023-03-27T13:56:31.889Z,11.60
2023-03-27T14:03:00.994Z,10.90
2023-03-27T14:09:37.579Z,9.00
2023-03-27T14:15:53.887Z,7.70
2023-03-27T14:22:23.622Z,5.60
2023-03-27T14:28:58.803Z,4.10
2023-03-27T14:35:10.214Z,4.00
2023-03-27T14:41:26.595Z,3.70
2023-03-27T14:47:28.830Z,5.30
2023-03-27T14:53:37.955Z,7.60
2023-03-27T14:59:43.959Z,10.60
2023-03-27T15:06:14.773Z,11.00
2023-03-27T15:12:16.686Z,10.70
2023-03-27T15:18:24.673Z,12.60
2023-03-27T15:25:17.658Z,12.70
2023-03-27T15:31:20.154Z,11.40
2023-03-27T15:37:28.695Z,11.10
2023-03-27T15:43:31.315Z,10.50
2023-03-27T15:49:38.652Z,8.90
2023-03-27T15:55:48.736Z,7.00
2023-03-27T16:01:54.252Z,6.40
2023-03-27T16:07:56.487Z,7.70
2023-03-27T16:13:59.139Z,9.40
2023-03-27T16:20:22.944Z,7.60
2023-03-27T16:26:33.269Z,6.60
2023-03-27T16:32:36.149Z,6.00
2023-03-27T16:38:40.806Z,5.60
2023-03-27T16:44:44.034Z,5.80
2023-03-27T16:50:46.228Z,8.10
2023-03-27T16:56:48.246Z,9.30
2023-03-27T17:02:50.387Z,8.70
2023-03-27T17:08:55.960Z,7.90
2023-03-27T17:14:57.967Z,6.50
2023-03-27T17:20:59.965Z,5.20
2023-03-27T17:27:01.847Z,4.90
2023-03-27T17:33:05.048Z,4.50
2023-03-27T17:39:07.656Z,4.60
2023-03-27T17:45:10.420Z,4.40
2023-03-27T17:51:12.331Z,4.30
2023-03-27T17:57:14.298Z,4.30
2023-03-27T18:03:16.801Z,4.30
2023-03-27T18:09:18.960Z,4.10
2023-03-27T18:15:20.962Z,3.90
2023-03-27T18:21:23.095Z,3.60
2023-03-27T18:27:25.131Z,3.20
2023-03-27T18:33:27.022Z,3.00
2023-03-27T18:39:29.158Z,3.00
2023-03-27T18:45:31.067Z,3.10
2023-03-27T18:51:33.253Z,3.00
2023-03-27T18:57:36.022Z,2.90
2023-03-27T19:03:39.069Z,2.90
2023-03-27T19:09:41.872Z,3.00
2023-03-27T19:15:43.934Z,3.00
2023-03-27T19:21:46.048Z,3.00
2023-03-27T19:27:47.945Z,2.90
2023-03-27T19:33:49.837Z,2.80
2023-03-27T19:39:52.049Z,2.80
2023-03-27T19:46:14.091Z,2.80
2023-03-27T19:52:19.758Z,2.80
2023-03-27T19:58:22.688Z,2.80
2023-03-27T20:04:24.643Z,2.90
2023-03-27T20:10:27.118Z,3.00
2023-03-27T20:16:29.317Z,3.00
2023-03-27T20:22:38.644Z,2.90
2023-03-27T20:28:45.394Z,2.70
2023-03-27T20:34:48.898Z,2.70
2023-03-27T20:40:53.713Z,2.60
2023-03-27T20:47:03.212Z,2.60
2023-03-27T20:53:05.150Z,2.50
2023-03-27T20:59:07.659Z,2.50
2023-03-27T21:05:10.079Z,2.50
2023-03-27T21:11:12.185Z,2.40
2023-03-27T21:17:14.106Z,2.50
2023-03-27T21:23:15.992Z,2.40
2023-03-27T21:29:18.279Z,2.60
2023-03-27T21:35:20.302Z,2.80
2023-03-27T21:41:22.378Z,2.80
2023-03-27T21:47:31.680Z,2.70
2023-03-27T21:53:39.375Z,2.60
2023-03-27T21:59:41.532Z,2.60
2023-03-27T22:05:45.952Z,2.60
2023-03-27T22:11:51.241Z,2.60
2023-03-27T22:17:53.184Z,2.70
2023-03-27T22:23:57.315Z,2.70
2023-03-27T22:29:59.346Z,2.80
2023-03-27T22:36:01.640Z,2.80
2023-03-27T22:42:03.823Z,2.80
2023-03-27T22:48:08.451Z,2.80
2023-03-27T22:54:10.365Z,2.80
2023-03-27T23:00:13.142Z,2.80
2023-03-27T23:06:21.965Z,2.80
2023-03-27T23:12:23.876Z,2.80
2023-03-27T23:18:25.948Z,2.70
2023-03-27T23:24:27.833Z,2.70
2023-03-27T23:30:29.751Z,2.60
2023-03-27T23:36:31.672Z,2.60
2023-03-27T23:42:33.629Z,2.70
2023-03-27T23:48:36.346Z,2.70
2023-03-27T23:54:38.453Z,2.70
